Palito Blanco, Texas
Current Conditions -  °F | °C
As of 7:53 AM on Sunday 25 Jan 2015 (Local Time) from KALI Reporting Station
Clear Clear  
Wind Chill:   Ceiling: Unl
Heat Index:   Visibility: 10mi
Dew Point:   Wind: 7mph
Humidity: 66%   Direction: 250°WSW
Pressure: 30.1"   Gusts: NA
Location:  27.6821°N, 98.1034°W
Report Text: KALI 251353Z AUTO 25006KT 10SM CLR 09/03 A3010 RMK AO2 SLP191 T00890028
Loading
Personal Weather Stations






























Interactive Weather Map New forecast layout! Learn more

10-Day Weather Forecast

Advertisements
Track Severe Weather on mobile